KAUW

Details ICAO KAUW
Name Wausau Downtown
Region United States
Timezone America/Chicago (UTC-6.0)
Plans Departing 1
Arriving 2
Stats Elevation 1,201 ft / 366 m (AMSL)
Location 44.926049° -89.625486°
Runways 2
Magnetic Variation 2.808° W
Sunrise 2017-12-17 13:32:35 UTC / 2017-12-17 07:32:35 Local
Sunset 2017-12-17 22:19:38 UTC / 2017-12-17 16:19:38 Local
Advertisement - Login to hide

Runways

ID Width Length Bearing (true) Bearing (mag) Surface Threshold Offset Overrun Length
04 98 ft / 30 m 3,083 ft / 940 m 43.91° 46.72° Asphalt 0 ft / 0 m 0 ft / 0 m
12 98 ft / 30 m 4,956 ft / 1,511 m 124.94° 127.75° Asphalt 0 ft / 0 m 0 ft / 0 m
22 98 ft / 30 m 3,083 ft / 940 m 223.91° 226.72° Asphalt 0 ft / 0 m 39 ft / 12 m
30 98 ft / 30 m 4,956 ft / 1,511 m 304.95° 307.76° Asphalt 0 ft / 0 m 0 ft / 0 m

Map

Weather


0- 5 10 15 20 25 30 35+ Temperature / ° C

Clouds and Precipitation
Forecast for 2017-12-18 00:00 UTC. Updated an hour ago

Ground ~20,000 ft ~40,000 ft Winds

METAR

KAUW 172154Z AUTO 17003KT 6SM BR OVC007 M03/M04 A2996 RMK AO2 SLP167 T10281039 $

TAF

TAF AMD KAUW 172120Z 1721/1818 14006KT 6SM BR OVC006 TEMPO 1723/1802 4SM BR FM180200 25004KT 2SM BR OVC003 FM181600 23008KT 4SM BR OVC005 TEMPO 1817/1818 P6SM NSW BKN009

Frequencies

Recorded 125.92 MHz ASOS
Approach 134.95 MHz ORLANDO APP/DEP
Unicom 122.70 MHz CTAF/UNICOM
Warning: Do not use this data for real-world aviation or navigation. No guarantee of current accuracy is given.